createdAt,value
2022-10-22T00:00:15.921Z,98.88
2022-10-22T00:02:47.228Z,99.01
2022-10-22T00:05:18.693Z,99.59
2022-10-22T00:07:49.941Z,98.39
2022-10-22T00:10:21.277Z,99.09
2022-10-22T00:12:52.628Z,99.02
2022-10-22T00:15:24.114Z,98.95
2022-10-22T00:17:55.420Z,98.47
2022-10-22T00:20:26.740Z,98.88
2022-10-22T00:22:58.010Z,98.81
2022-10-22T00:25:29.392Z,98.61
2022-10-22T00:28:01.168Z,98.76
2022-10-22T00:30:32.510Z,98.63
2022-10-22T00:33:03.871Z,98.65
2022-10-22T00:35:35.288Z,98.59
2022-10-22T00:38:06.590Z,98.76
2022-10-22T00:40:37.861Z,98.77
2022-10-22T00:43:13.551Z,98.61
2022-10-22T00:45:45.553Z,98.48
2022-10-22T00:48:23.174Z,98.54
2022-10-22T00:50:58.673Z,98.38
2022-10-22T00:53:34.693Z,97.95
2022-10-22T00:56:06.158Z,97.85
2022-10-22T00:58:43.587Z,97.85
2022-10-22T01:01:21.426Z,97.70
2022-10-22T01:03:53.601Z,97.78
2022-10-22T01:06:30.790Z,97.69
2022-10-22T01:09:21.274Z,97.78
2022-10-22T01:12:11.513Z,97.60
2022-10-22T01:15:21.751Z,97.91
2022-10-22T01:18:04.859Z,97.40
2022-10-22T01:21:03.640Z,97.89
2022-10-22T01:24:05.914Z,97.48
2022-10-22T01:26:37.147Z,97.36
2022-10-22T01:29:19.911Z,97.23
2022-10-22T01:31:56.453Z,97.22
2022-10-22T01:34:30.558Z,97.10
2022-10-22T01:37:03.516Z,97.20
2022-10-22T01:39:38.358Z,97.04
2022-10-22T01:42:12.384Z,97.18
2022-10-22T01:44:43.677Z,97.15
2022-10-22T01:47:39.280Z,96.86
2022-10-22T01:50:52.541Z,97.22
2022-10-22T01:53:48.452Z,97.04
2022-10-22T01:56:36.219Z,97.27
2022-10-22T01:59:17.234Z,97.07
2022-10-22T02:01:48.456Z,97.26
2022-10-22T02:04:40.601Z,96.87
2022-10-22T02:07:15.764Z,97.24
2022-10-22T02:09:49.082Z,96.85
2022-10-22T02:12:22.292Z,97.18
2022-10-22T02:14:55.514Z,96.99
2022-10-22T02:17:30.413Z,96.83
2022-10-22T02:20:08.110Z,97.23
2022-10-22T02:22:40.277Z,97.41
2022-10-22T02:25:12.366Z,97.44
2022-10-22T02:27:47.545Z,97.30
2022-10-22T02:30:21.438Z,97.33
2022-10-22T02:33:08.583Z,97.28
2022-10-22T02:35:41.956Z,97.28
2022-10-22T02:38:13.683Z,97.40
2022-10-22T02:40:45.350Z,97.67
2022-10-22T02:43:18.410Z,97.25
2022-10-22T02:45:49.691Z,97.60
2022-10-22T02:50:57.087Z,96.91
2022-10-22T02:53:28.359Z,97.30
2022-10-22T02:56:00.118Z,97.15
2022-10-22T02:58:31.378Z,97.18
2022-10-22T03:01:02.716Z,97.09
2022-10-22T03:03:33.997Z,97.24
2022-10-22T03:06:05.533Z,97.25
2022-10-22T03:08:36.847Z,97.66
2022-10-22T03:11:08.635Z,97.58
2022-10-22T03:13:39.931Z,97.76
2022-10-22T03:20:03.605Z,98.63
2022-10-22T03:22:36.456Z,98.73
2022-10-22T03:25:12.080Z,98.59
2022-10-22T03:27:44.022Z,98.92
2022-10-22T03:30:15.777Z,98.73
2022-10-22T03:32:47.150Z,98.76
2022-10-22T03:35:18.461Z,99.16
2022-10-22T03:37:50.453Z,99.06
2022-10-22T03:40:21.860Z,98.74
2022-10-22T03:42:53.279Z,99.03
2022-10-22T03:45:24.663Z,99.19
2022-10-22T03:47:56.093Z,99.12
2022-10-22T03:50:27.433Z,99.23
2022-10-22T03:52:59.596Z,98.54
2022-10-22T03:55:30.881Z,98.65
2022-10-22T03:58:02.598Z,98.91
2022-10-22T04:00:35.533Z,99.09
2022-10-22T04:03:06.822Z,99.07
2022-10-22T04:05:38.060Z,98.68
2022-10-22T04:08:09.317Z,98.75
2022-10-22T04:10:40.643Z,98.61
2022-10-22T04:13:12.277Z,98.41
2022-10-22T04:15:43.524Z,98.79
2022-10-22T04:18:14.788Z,98.64
2022-10-22T04:20:46.102Z,98.51
2022-10-22T04:23:17.351Z,98.54
2022-10-22T04:25:48.592Z,98.58
2022-10-22T04:28:19.861Z,98.74
2022-10-22T04:30:51.110Z,98.90
2022-10-22T04:33:22.911Z,98.59
2022-10-22T04:35:54.165Z,98.61
2022-10-22T04:38:25.436Z,98.58
2022-10-22T04:40:56.741Z,98.43
2022-10-22T04:43:28.007Z,98.31
2022-10-22T04:46:00.837Z,98.51
2022-10-22T04:48:32.128Z,98.15
2022-10-22T04:51:04.980Z,98.24
2022-10-22T04:53:36.611Z,98.25
2022-10-22T04:56:16.735Z,97.99
2022-10-22T04:58:49.959Z,98.21
2022-10-22T05:01:36.891Z,98.17
2022-10-22T05:04:13.981Z,98.00
2022-10-22T05:06:45.798Z,97.96
2022-10-22T05:09:19.525Z,97.87
2022-10-22T05:11:52.555Z,97.76
2022-10-22T05:14:25.074Z,98.00
2022-10-22T05:16:56.369Z,98.02
2022-10-22T05:19:29.756Z,98.47
2022-10-22T05:22:02.812Z,97.93
2022-10-22T05:24:34.392Z,97.85
2022-10-22T05:27:05.764Z,98.01
2022-10-22T05:29:37.116Z,97.88
2022-10-22T05:32:08.438Z,97.95
2022-10-22T05:34:39.685Z,97.92
2022-10-22T05:37:10.976Z,97.86
2022-10-22T05:39:42.284Z,97.94
2022-10-22T05:42:13.680Z,98.09
2022-10-22T05:44:44.991Z,97.95
2022-10-22T05:47:16.271Z,97.85
2022-10-22T05:49:47.523Z,97.87
2022-10-22T05:52:18.857Z,98.01
2022-10-22T05:54:50.229Z,97.72
2022-10-22T05:57:21.529Z,97.59
2022-10-22T05:59:52.768Z,97.56
2022-10-22T06:02:24.163Z,97.73
2022-10-22T06:04:55.580Z,97.55
2022-10-22T06:07:27.001Z,97.62
2022-10-22T06:09:59.203Z,97.26
2022-10-22T06:12:30.512Z,97.24
2022-10-22T06:15:01.779Z,97.48
2022-10-22T06:17:33.060Z,97.68
2022-10-22T06:22:36.967Z,97.34
2022-10-22T06:25:08.763Z,97.41
2022-10-22T06:27:40.065Z,97.40
2022-10-22T06:30:11.733Z,97.38
2022-10-22T06:32:43.197Z,97.61
2022-10-22T06:35:14.706Z,97.82
2022-10-22T06:37:47.365Z,97.78
2022-10-22T06:40:19.266Z,97.67
2022-10-22T06:42:50.518Z,97.66
2022-10-22T06:45:21.773Z,97.90
2022-10-22T06:47:53.665Z,97.75
2022-10-22T06:50:24.908Z,98.22
2022-10-22T06:52:56.447Z,98.10
2022-10-22T06:55:27.696Z,97.45
2022-10-22T06:57:59.014Z,98.30
2022-10-22T07:00:30.337Z,98.08
2022-10-22T07:03:01.725Z,98.37
2022-10-22T07:05:34.398Z,98.58
2022-10-22T07:08:06.011Z,98.59
2022-10-22T07:10:37.287Z,98.48
2022-10-22T07:13:08.650Z,98.64
2022-10-22T07:15:39.891Z,98.69
2022-10-22T07:18:11.300Z,98.77
2022-10-22T07:20:42.589Z,98.82
2022-10-22T07:23:13.954Z,98.82
2022-10-22T07:25:45.289Z,99.17
2022-10-22T07:28:17.048Z,99.32
2022-10-22T07:30:48.810Z,99.06
2022-10-22T07:33:20.586Z,99.46
2022-10-22T07:35:57.851Z,99.48
2022-10-22T07:38:30.038Z,99.30
2022-10-22T07:41:01.865Z,99.50
2022-10-22T07:43:33.477Z,99.74
2022-10-22T07:46:04.943Z,99.66
2022-10-22T07:48:36.908Z,99.48
2022-10-22T07:51:09.262Z,99.43
2022-10-22T07:53:40.613Z,99.87
2022-10-22T07:56:11.944Z,99.74
2022-10-22T07:58:43.265Z,99.71
2022-10-22T08:01:14.686Z,100.00
2022-10-22T08:03:45.984Z,99.46
2022-10-22T08:06:17.712Z,100.00
2022-10-22T08:08:49.378Z,99.78
2022-10-22T08:11:20.729Z,99.87
2022-10-22T08:13:52.308Z,99.89
2022-10-22T08:16:23.584Z,100.00
2022-10-22T08:18:54.861Z,99.95
2022-10-22T08:21:26.894Z,99.74
2022-10-22T08:23:58.173Z,99.74
2022-10-22T08:26:29.456Z,99.64
2022-10-22T08:29:00.743Z,99.83
2022-10-22T08:31:32.469Z,99.37
2022-10-22T08:34:05.523Z,99.64
2022-10-22T08:36:36.799Z,99.53
2022-10-22T08:39:08.147Z,99.60
2022-10-22T08:41:53.941Z,99.90
2022-10-22T08:44:37.370Z,99.73
2022-10-22T08:47:49.337Z,99.87
2022-10-22T08:50:26.874Z,99.77
2022-10-22T08:53:02.452Z,99.43
2022-10-22T08:55:37.405Z,99.24
2022-10-22T08:58:25.572Z,99.32
2022-10-22T09:01:00.622Z,99.20
2022-10-22T09:04:13.405Z,98.72
2022-10-22T09:06:44.878Z,98.88
2022-10-22T09:09:18.142Z,99.05
2022-10-22T09:11:51.685Z,97.91
2022-10-22T09:14:25.790Z,97.81
2022-10-22T09:17:20.731Z,97.97
2022-10-22T09:20:12.385Z,97.51
2022-10-22T09:22:59.620Z,97.25
2022-10-22T09:25:35.081Z,97.26
2022-10-22T09:28:08.786Z,96.94
2022-10-22T09:30:44.655Z,96.86
2022-10-22T09:33:24.817Z,97.04
2022-10-22T09:36:03.507Z,96.64
2022-10-22T09:38:44.569Z,97.02
2022-10-22T09:41:17.081Z,96.73
2022-10-22T09:43:49.175Z,96.22
2022-10-22T09:46:23.626Z,96.23
2022-10-22T09:49:06.675Z,96.02
2022-10-22T09:51:54.972Z,96.38
2022-10-22T09:54:38.408Z,96.33
2022-10-22T09:57:18.213Z,95.56
2022-10-22T09:59:51.457Z,95.16
2022-10-22T10:02:43.981Z,94.88
2022-10-22T10:05:30.239Z,94.64
2022-10-22T10:08:22.111Z,94.23
2022-10-22T10:11:05.671Z,94.24
2022-10-22T10:14:06.434Z,94.10
2022-10-22T10:17:03.801Z,93.48
2022-10-22T10:20:03.023Z,93.93
2022-10-22T10:22:56.693Z,93.28
2022-10-22T10:25:28.082Z,93.01
2022-10-22T10:28:14.477Z,92.91
2022-10-22T10:30:54.331Z,92.22
2022-10-22T10:33:40.384Z,93.53
2022-10-22T10:36:28.637Z,93.27
2022-10-22T10:39:10.250Z,92.68
2022-10-22T10:42:08.913Z,91.80
2022-10-22T10:45:09.537Z,91.90
2022-10-22T10:48:10.317Z,91.50
2022-10-22T10:51:03.805Z,91.79
2022-10-22T10:53:47.277Z,91.45
2022-10-22T10:56:39.350Z,90.42
2022-10-22T10:59:16.432Z,90.20
2022-10-22T11:01:59.927Z,89.60
2022-10-22T11:05:01.171Z,89.55
2022-10-22T11:07:40.562Z,90.10
2022-10-22T11:10:33.994Z,89.66
2022-10-22T11:13:18.836Z,90.15
2022-10-22T11:16:04.060Z,89.45
2022-10-22T11:18:48.010Z,89.33
2022-10-22T11:21:40.012Z,88.87
2022-10-22T11:24:21.966Z,88.76
2022-10-22T11:27:02.335Z,89.09
2022-10-22T11:29:40.897Z,88.49
2022-10-22T11:32:20.049Z,88.28
2022-10-22T11:34:56.345Z,87.91
2022-10-22T11:37:34.727Z,87.24
2022-10-22T11:40:14.635Z,86.77
2022-10-22T11:42:59.637Z,86.14
2022-10-22T11:45:36.108Z,85.14
2022-10-22T11:48:17.123Z,84.65
2022-10-22T11:50:50.731Z,84.14
2022-10-22T11:53:36.135Z,84.09
2022-10-22T11:56:07.479Z,83.92
2022-10-22T11:58:50.824Z,83.58
2022-10-22T12:01:28.904Z,83.24
2022-10-22T12:04:22.258Z,82.70
2022-10-22T12:07:02.049Z,83.93
2022-10-22T12:09:34.309Z,83.65
2022-10-22T12:12:15.325Z,83.23
2022-10-22T12:14:57.932Z,83.54
2022-10-22T12:17:30.957Z,83.64
2022-10-22T12:20:12.597Z,83.45
2022-10-22T12:22:44.133Z,82.97
2022-10-22T12:25:23.994Z,82.90
2022-10-22T12:27:57.983Z,83.36
2022-10-22T12:30:37.059Z,82.34
2022-10-22T12:33:19.344Z,82.25
2022-10-22T12:35:53.945Z,82.33
2022-10-22T12:38:25.660Z,82.13
2022-10-22T12:40:57.336Z,82.01
2022-10-22T12:43:30.218Z,81.82
2022-10-22T12:46:01.672Z,81.98
2022-10-22T12:48:38.738Z,81.77
2022-10-22T12:51:19.740Z,81.63
2022-10-22T12:53:54.329Z,81.22
2022-10-22T12:56:28.694Z,80.71
2022-10-22T12:59:03.069Z,80.53
2022-10-22T13:01:38.796Z,80.14
2022-10-22T13:04:13.022Z,80.11
2022-10-22T13:06:46.984Z,79.61
2022-10-22T13:09:27.064Z,79.42
2022-10-22T13:12:07.232Z,79.31
2022-10-22T13:14:38.684Z,79.29
2022-10-22T13:17:18.510Z,78.16
2022-10-22T13:20:02.025Z,78.26
2022-10-22T13:22:36.145Z,78.05
2022-10-22T13:25:13.667Z,77.56
2022-10-22T13:27:58.812Z,77.59
2022-10-22T13:30:33.820Z,77.80
2022-10-22T13:33:17.650Z,77.59
2022-10-22T13:35:49.416Z,77.34
2022-10-22T13:38:24.473Z,78.03
2022-10-22T13:40:56.636Z,77.97
2022-10-22T13:43:27.900Z,78.36
2022-10-22T13:46:00.277Z,78.37
2022-10-22T13:48:31.744Z,78.28
2022-10-22T13:51:06.651Z,77.87
2022-10-22T13:53:37.950Z,77.83
2022-10-22T13:56:13.984Z,77.88
2022-10-22T13:58:47.176Z,77.75
2022-10-22T14:01:22.735Z,77.55
2022-10-22T14:03:57.973Z,77.56
2022-10-22T14:06:33.278Z,77.80
2022-10-22T14:09:13.905Z,78.16
2022-10-22T14:11:45.274Z,78.50
2022-10-22T14:14:17.232Z,78.27
2022-10-22T14:16:48.650Z,78.69
2022-10-22T14:19:19.958Z,78.84
2022-10-22T14:21:52.199Z,78.22
2022-10-22T14:24:23.543Z,78.22
2022-10-22T14:26:54.845Z,78.16
2022-10-22T14:29:26.614Z,78.03
2022-10-22T14:31:57.962Z,78.08
2022-10-22T14:34:29.233Z,78.11
2022-10-22T14:37:00.508Z,78.26
2022-10-22T14:39:31.779Z,78.35
2022-10-22T14:42:03.182Z,78.55
2022-10-22T14:44:34.428Z,78.66
2022-10-22T14:47:06.108Z,78.73
2022-10-22T14:49:37.395Z,78.93
2022-10-22T14:52:11.675Z,78.64
2022-10-22T14:54:45.693Z,78.55
2022-10-22T14:57:17.139Z,78.58
2022-10-22T14:59:48.393Z,78.76
2022-10-22T15:02:19.652Z,78.57
2022-10-22T15:04:50.959Z,78.78
2022-10-22T15:07:24.582Z,78.73
2022-10-22T15:09:55.897Z,79.09
2022-10-22T15:12:27.650Z,78.98
2022-10-22T15:14:58.928Z,78.94
2022-10-22T15:17:30.289Z,80.02
2022-10-22T15:20:04.029Z,80.13
2022-10-22T15:22:35.729Z,80.60
2022-10-22T15:25:09.071Z,80.91
2022-10-22T15:27:40.860Z,81.31
2022-10-22T15:30:13.444Z,81.33
2022-10-22T15:32:44.721Z,81.75
2022-10-22T15:35:16.096Z,82.14
2022-10-22T15:37:51.420Z,82.20
2022-10-22T15:40:22.727Z,82.94
2022-10-22T15:42:54.475Z,83.22
2022-10-22T15:45:25.729Z,83.14
2022-10-22T15:47:57.011Z,83.31
2022-10-22T15:50:28.358Z,83.49
2022-10-22T15:53:00.107Z,83.95
2022-10-22T15:55:31.558Z,84.05
2022-10-22T15:58:04.188Z,83.92
2022-10-22T16:00:35.729Z,84.51
2022-10-22T16:03:07.686Z,84.69
2022-10-22T16:05:39.035Z,84.68
2022-10-22T16:08:10.313Z,84.99
2022-10-22T16:10:45.859Z,84.95
2022-10-22T16:13:17.167Z,85.27
2022-10-22T16:15:48.421Z,84.80
2022-10-22T16:18:20.437Z,85.37
2022-10-22T16:20:51.792Z,85.44
2022-10-22T16:23:23.340Z,85.63
2022-10-22T16:25:54.625Z,85.74
2022-10-22T16:28:25.922Z,85.51
2022-10-22T16:31:01.590Z,85.88
2022-10-22T16:33:41.283Z,85.86
2022-10-22T16:36:18.855Z,86.30
2022-10-22T16:38:50.410Z,86.47
2022-10-22T16:41:24.456Z,86.76
2022-10-22T16:43:55.810Z,86.60
2022-10-22T16:46:27.081Z,86.82
2022-10-22T16:48:58.743Z,86.83
2022-10-22T16:51:30.171Z,86.82
2022-10-22T16:54:01.562Z,87.04
2022-10-22T16:56:36.287Z,87.20
2022-10-22T16:59:07.964Z,86.94
2022-10-22T17:01:41.296Z,87.21
2022-10-22T17:04:12.847Z,87.11
2022-10-22T17:06:44.133Z,87.22
2022-10-22T17:09:15.811Z,87.29
2022-10-22T17:11:47.324Z,87.13
2022-10-22T17:14:18.623Z,86.74
2022-10-22T17:16:53.568Z,87.28
2022-10-22T17:19:24.919Z,87.11
2022-10-22T17:21:56.196Z,87.36
2022-10-22T17:24:27.478Z,87.33
2022-10-22T17:26:58.810Z,87.52
2022-10-22T17:29:30.120Z,87.72
2022-10-22T17:32:01.953Z,87.76
2022-10-22T17:34:33.841Z,87.84
2022-10-22T17:37:05.138Z,87.96
2022-10-22T17:39:36.445Z,87.78
2022-10-22T17:42:07.752Z,87.85
2022-10-22T17:44:39.016Z,87.99
2022-10-22T17:47:10.282Z,87.98
2022-10-22T17:49:41.658Z,88.32
2022-10-22T17:52:14.331Z,88.04
2022-10-22T17:54:48.386Z,88.02
2022-10-22T17:57:19.891Z,87.76
2022-10-22T17:59:51.312Z,87.78
2022-10-22T18:02:22.617Z,87.82
2022-10-22T18:04:54.096Z,87.93
2022-10-22T18:07:25.430Z,88.07
2022-10-22T18:09:56.771Z,88.08
2022-10-22T18:12:28.063Z,88.07
2022-10-22T18:14:59.331Z,88.13
2022-10-22T18:17:31.840Z,88.15
2022-10-22T18:20:05.330Z,88.13
2022-10-22T18:22:36.605Z,88.42
2022-10-22T18:25:09.053Z,88.27
2022-10-22T18:27:40.785Z,88.32
2022-10-22T18:30:12.596Z,88.30
2022-10-22T18:32:43.839Z,88.45
2022-10-22T18:35:15.174Z,88.49
2022-10-22T18:37:46.567Z,88.46
2022-10-22T18:40:17.978Z,88.45
2022-10-22T18:42:49.278Z,88.47
2022-10-22T18:45:20.588Z,88.34
2022-10-22T18:47:51.828Z,88.19
2022-10-22T18:50:23.145Z,88.52
2022-10-22T18:52:54.575Z,88.43
2022-10-22T18:55:25.887Z,88.58
2022-10-22T18:57:57.186Z,88.78
2022-10-22T19:00:28.497Z,88.95
2022-10-22T19:02:59.749Z,88.45
2022-10-22T19:05:31.687Z,88.82
2022-10-22T19:08:03.615Z,88.83
2022-10-22T19:10:34.989Z,88.95
2022-10-22T19:13:06.375Z,88.94
2022-10-22T19:15:37.666Z,88.99
2022-10-22T19:18:09.170Z,88.98
2022-10-22T19:20:40.789Z,89.04
2022-10-22T19:23:12.048Z,88.78
2022-10-22T19:25:43.369Z,88.94
2022-10-22T19:28:14.652Z,89.01
2022-10-22T19:30:45.932Z,88.92
2022-10-22T19:33:17.311Z,89.03
2022-10-22T19:35:48.871Z,88.91
2022-10-22T19:38:20.324Z,89.03
2022-10-22T19:40:51.756Z,89.11
2022-10-22T19:43:23.071Z,88.88
2022-10-22T19:45:55.404Z,89.03
2022-10-22T19:48:28.608Z,89.06
2022-10-22T19:51:03.012Z,88.75
2022-10-22T19:53:35.684Z,88.98
2022-10-22T19:56:12.501Z,88.89
2022-10-22T19:58:43.850Z,88.82
2022-10-22T20:01:17.578Z,89.07
2022-10-22T20:03:49.148Z,89.05
2022-10-22T20:06:21.886Z,89.10
2022-10-22T20:08:59.228Z,89.02
2022-10-22T20:11:30.557Z,88.91
2022-10-22T20:14:02.216Z,88.90
2022-10-22T20:16:33.667Z,88.99
2022-10-22T20:19:07.306Z,88.98
2022-10-22T20:21:40.234Z,88.86
2022-10-22T20:24:12.051Z,88.66
2022-10-22T20:26:46.177Z,88.86
2022-10-22T20:29:18.986Z,88.62
2022-10-22T20:31:50.370Z,88.62
2022-10-22T20:34:21.677Z,89.03
2022-10-22T20:36:52.954Z,88.19
2022-10-22T20:39:24.223Z,89.00
2022-10-22T20:41:55.513Z,88.95
2022-10-22T20:44:26.798Z,89.21
2022-10-22T20:49:34.302Z,88.89
2022-10-22T20:52:05.813Z,89.11
2022-10-22T20:54:43.951Z,89.45
2022-10-22T20:57:15.425Z,89.38
2022-10-22T20:59:46.836Z,88.98
2022-10-22T21:02:18.253Z,89.50
2022-10-22T21:04:49.569Z,89.37
2022-10-22T21:07:20.939Z,89.47
2022-10-22T21:09:52.242Z,89.35
2022-10-22T21:12:23.530Z,89.26
2022-10-22T21:14:54.809Z,89.28
2022-10-22T21:17:26.129Z,89.48
2022-10-22T21:19:57.504Z,89.48
2022-10-22T21:22:28.813Z,89.59
2022-10-22T21:25:00.083Z,89.66
2022-10-22T21:27:31.338Z,90.31
2022-10-22T21:30:02.776Z,89.92
2022-10-22T21:32:34.054Z,89.69
2022-10-22T21:35:05.687Z,89.69
2022-10-22T21:37:36.999Z,90.33
2022-10-22T21:40:08.896Z,90.27
2022-10-22T21:42:40.192Z,90.39
2022-10-22T21:45:14.157Z,90.46
2022-10-22T21:47:46.088Z,90.71
2022-10-22T21:50:17.366Z,90.72
2022-10-22T21:52:48.676Z,90.82
2022-10-22T21:55:19.938Z,90.69
2022-10-22T21:57:51.243Z,90.87
2022-10-22T22:00:22.624Z,90.62
2022-10-22T22:02:53.885Z,90.86
2022-10-22T22:05:25.236Z,90.87
2022-10-22T22:07:56.552Z,90.83
2022-10-22T22:10:27.861Z,91.09
2022-10-22T22:12:59.128Z,91.07
2022-10-22T22:15:31.545Z,91.37
2022-10-22T22:18:02.890Z,91.32
2022-10-22T22:20:34.238Z,91.65
2022-10-22T22:23:05.512Z,91.77
2022-10-22T22:25:36.767Z,91.85
2022-10-22T22:28:08.098Z,91.90
2022-10-22T22:30:39.395Z,91.67
2022-10-22T22:33:11.017Z,91.61
2022-10-22T22:35:42.276Z,91.37
2022-10-22T22:38:13.543Z,91.30
2022-10-22T22:40:44.857Z,91.60
2022-10-22T22:43:16.208Z,91.46
2022-10-22T22:45:47.449Z,91.49
2022-10-22T22:48:19.137Z,91.65
2022-10-22T22:50:50.401Z,91.92
2022-10-22T22:53:22.029Z,92.02
2022-10-22T22:56:23.958Z,91.98
2022-10-22T22:58:55.635Z,91.95
2022-10-22T23:01:32.503Z,91.85
2022-10-22T23:04:11.641Z,91.92
2022-10-22T23:06:43.004Z,91.68
2022-10-22T23:09:16.388Z,91.81
2022-10-22T23:11:47.894Z,91.61
2022-10-22T23:14:19.676Z,91.43
2022-10-22T23:16:52.937Z,91.44
2022-10-22T23:19:24.295Z,91.55
2022-10-22T23:21:55.752Z,91.67
2022-10-22T23:24:29.373Z,91.50
2022-10-22T23:27:02.225Z,91.88
2022-10-22T23:29:36.295Z,92.09
2022-10-22T23:32:14.177Z,91.85
2022-10-22T23:34:45.424Z,91.74
2022-10-22T23:37:16.687Z,91.79
2022-10-22T23:39:47.964Z,91.49
2022-10-22T23:42:19.288Z,91.62
2022-10-22T23:44:50.562Z,91.83
2022-10-22T23:47:21.830Z,91.66
2022-10-22T23:49:53.213Z,91.47
2022-10-22T23:52:24.491Z,91.83
2022-10-22T23:54:55.745Z,91.85
2022-10-22T23:57:27.057Z,91.72
2022-10-22T23:59:58.317Z,91.53
